Terminal Aerodrome Forecast
Issued by NWS

Home | Current Version | Previous Version | Text Only | Print | Product List | Glossary On
Versions: 1 2 3 4 5 6 7 8 9 10 11 12 13 14 15 16 17 18 19 20 21 22
727
FTUS44 KTSA 201129
TAFMLC
TAF
KMLC 201129Z 2012/2112 21008KT P6SM -RA SCT030 BKN060 OVC070
      TEMPO 2012/2016 5SM -RA BR BKN025
     FM201900 19006KT P6SM BKN100
     FM210200 19003KT P6SM SCT250
     FM210600 00000KT 4SM BR SKC
     FM210900 00000KT 2SM BR SKC=

USA.gov is the U.S. government's official web portal to all federal, state and local government web resources and services.